createdAt,value
2023-01-17T00:02:16.036Z,89790.53
2023-01-17T00:05:03.693Z,89775.59
2023-01-17T00:07:49.808Z,89800.03
2023-01-17T00:10:19.521Z,89794.22
2023-01-17T00:12:49.543Z,89807.38
2023-01-17T00:15:20.092Z,89799.09
2023-01-17T00:17:49.252Z,89793.91
2023-01-17T00:20:39.505Z,89795.44
2023-01-17T00:23:26.785Z,89788.78
2023-01-17T00:26:04.564Z,89786.13
2023-01-17T00:28:34.532Z,89782.03
2023-01-17T00:31:01.998Z,89780.00
2023-01-17T00:33:29.560Z,89785.66
2023-01-17T00:35:59.639Z,89781.78
2023-01-17T00:38:29.359Z,89788.31
2023-01-17T00:41:02.833Z,89792.88
2023-01-17T00:43:49.378Z,89787.69
2023-01-17T00:46:36.209Z,89786.41
2023-01-17T00:49:22.577Z,89769.97
2023-01-17T00:52:09.954Z,89777.66
2023-01-17T00:54:56.094Z,89775.00
2023-01-17T00:57:42.712Z,89769.81
2023-01-17T01:00:30.360Z,89773.13
2023-01-17T01:03:16.547Z,89762.88
2023-01-17T01:06:02.351Z,89773.47
2023-01-17T01:08:49.687Z,89777.06
2023-01-17T01:11:39.580Z,89766.50
2023-01-17T01:14:27.302Z,89773.28
2023-01-17T01:17:13.356Z,89772.56
2023-01-17T01:19:59.116Z,89777.06
2023-01-17T01:22:44.968Z,89790.31
2023-01-17T01:25:32.485Z,89783.84
2023-01-17T01:28:25.329Z,89793.28
2023-01-17T01:31:10.970Z,89810.44
2023-01-17T01:33:39.568Z,89796.75
2023-01-17T01:36:10.513Z,89795.19
2023-01-17T01:38:39.896Z,89779.38
2023-01-17T01:41:10.324Z,89795.59
2023-01-17T01:43:46.742Z,89792.56
2023-01-17T01:46:19.756Z,89782.34
2023-01-17T01:48:54.941Z,89795.63
2023-01-17T01:51:28.445Z,89783.31
2023-01-17T01:54:03.769Z,89776.91
2023-01-17T01:56:34.822Z,89770.03
2023-01-17T01:59:05.898Z,89770.09
2023-01-17T02:01:35.629Z,89771.91
2023-01-17T02:04:09.826Z,89765.88
2023-01-17T02:06:42.987Z,89773.56
2023-01-17T02:09:14.022Z,89778.88
2023-01-17T02:11:45.496Z,89767.75
2023-01-17T02:14:16.877Z,89775.78
2023-01-17T02:17:07.246Z,89772.41
2023-01-17T02:20:34.528Z,89768.25
2023-01-17T02:23:50.122Z,89768.22
2023-01-17T02:27:02.684Z,89773.94
2023-01-17T02:30:26.817Z,89764.47
2023-01-17T02:33:08.090Z,89766.69
2023-01-17T02:35:48.548Z,89767.97
2023-01-17T02:38:31.633Z,89761.53
2023-01-17T02:41:05.623Z,89770.56
2023-01-17T02:43:34.878Z,89758.47
2023-01-17T02:46:04.853Z,89765.94
2023-01-17T02:48:36.786Z,89766.75
2023-01-17T02:51:36.790Z,89762.28
2023-01-17T02:54:22.504Z,89761.66
2023-01-17T02:57:04.675Z,89752.50
2023-01-17T02:59:45.203Z,89754.59
2023-01-17T03:02:23.837Z,89748.28
2023-01-17T03:05:00.874Z,89746.34
2023-01-17T03:07:30.577Z,89750.38
2023-01-17T03:10:03.635Z,89748.72
2023-01-17T03:12:34.664Z,89749.47
2023-01-17T03:15:03.220Z,89750.59
2023-01-17T03:17:34.530Z,89744.13
2023-01-17T03:20:03.280Z,89746.34
2023-01-17T03:22:31.694Z,89745.94
2023-01-17T03:25:00.102Z,89739.72
2023-01-17T03:27:28.525Z,89739.47
2023-01-17T03:29:57.324Z,89746.56
2023-01-17T03:32:25.843Z,89753.75
2023-01-17T03:34:55.906Z,89746.47
2023-01-17T03:37:24.377Z,89746.34
2023-01-17T03:39:52.794Z,89752.47
2023-01-17T03:42:21.195Z,89756.53
2023-01-17T03:44:49.618Z,89761.75
2023-01-17T03:47:18.020Z,89758.72
2023-01-17T03:49:46.469Z,89756.78
2023-01-17T03:52:16.359Z,89757.31
2023-01-17T03:54:45.034Z,89758.88
2023-01-17T03:57:13.456Z,89759.22
2023-01-17T03:59:42.172Z,89758.72
2023-01-17T04:02:10.716Z,89756.94
2023-01-17T04:04:39.222Z,89752.31
2023-01-17T04:07:07.645Z,89748.41
2023-01-17T04:09:37.721Z,89763.09
2023-01-17T04:12:06.354Z,89745.59
2023-01-17T04:14:34.771Z,89743.66
2023-01-17T04:17:04.191Z,89747.03
2023-01-17T04:19:35.516Z,89735.72
2023-01-17T04:22:04.225Z,89726.94
2023-01-17T04:24:32.645Z,89725.84
2023-01-17T04:27:02.663Z,89727.59
2023-01-17T04:29:31.076Z,89722.72
2023-01-17T04:31:59.513Z,89719.94
2023-01-17T04:34:28.674Z,89721.59
2023-01-17T04:36:57.339Z,89724.66
2023-01-17T04:39:25.744Z,89716.88
2023-01-17T04:41:54.154Z,89707.34
2023-01-17T04:44:24.077Z,89714.47
2023-01-17T04:46:52.685Z,89709.53
2023-01-17T04:49:21.116Z,89700.94
2023-01-17T04:51:49.759Z,89697.38
2023-01-17T04:54:18.361Z,89695.59
2023-01-17T04:56:46.775Z,89691.81
2023-01-17T04:59:15.408Z,89691.81
2023-01-17T05:01:45.464Z,89689.66
2023-01-17T05:04:13.895Z,89687.38
2023-01-17T05:09:31.738Z,89688.72
2023-01-17T05:12:00.272Z,89690.09
2023-01-17T05:14:28.712Z,89692.34
2023-01-17T05:16:59.297Z,89686.47
2023-01-17T05:19:28.877Z,89687.81
2023-01-17T05:22:03.917Z,89683.78
2023-01-17T05:24:32.836Z,89676.75
2023-01-17T05:27:03.827Z,89673.41
2023-01-17T05:29:32.304Z,89658.47
2023-01-17T05:32:02.095Z,89674.34
2023-01-17T05:34:30.778Z,89672.31
2023-01-17T05:36:59.349Z,89676.94
2023-01-17T05:39:27.825Z,89667.44
2023-01-17T05:41:56.797Z,89665.13
2023-01-17T05:44:27.464Z,89669.69
2023-01-17T05:46:56.336Z,89666.00
2023-01-17T05:49:26.250Z,89653.94
2023-01-17T05:51:55.137Z,89653.53
2023-01-17T05:54:24.470Z,89649.94
2023-01-17T05:56:52.861Z,89639.97
2023-01-17T05:59:32.405Z,89645.25
2023-01-17T06:02:05.123Z,89641.59
2023-01-17T06:04:35.050Z,89646.53
2023-01-17T06:07:03.507Z,89644.38
2023-01-17T06:09:31.931Z,89656.81
2023-01-17T06:12:00.579Z,89653.81
2023-01-17T06:14:28.992Z,89643.28
2023-01-17T06:16:57.413Z,89641.41
2023-01-17T06:19:25.807Z,89638.03
2023-01-17T06:21:55.583Z,89636.16
2023-01-17T06:24:24.026Z,89632.00
2023-01-17T06:26:52.451Z,89633.13
2023-01-17T06:29:20.856Z,89626.34
2023-01-17T06:31:49.471Z,89631.22
2023-01-17T06:34:18.159Z,89633.50
2023-01-17T06:36:46.772Z,89644.00
2023-01-17T06:39:16.653Z,89646.25
2023-01-17T06:41:45.101Z,89652.97
2023-01-17T06:44:13.765Z,89644.69
2023-01-17T06:46:42.511Z,89642.41
2023-01-17T06:49:10.992Z,89652.97
2023-01-17T06:51:39.627Z,89644.66
2023-01-17T06:54:08.665Z,89649.16
2023-01-17T06:56:38.867Z,89645.41
2023-01-17T06:59:07.704Z,89656.06
2023-01-17T07:01:36.330Z,89648.56
2023-01-17T07:04:06.374Z,89639.91
2023-01-17T07:06:37.543Z,89639.53
2023-01-17T07:09:06.333Z,89627.47
2023-01-17T07:11:34.737Z,89624.06
2023-01-17T07:14:04.533Z,89624.81
2023-01-17T07:16:33.223Z,89615.81
2023-01-17T07:19:01.654Z,89625.22
2023-01-17T07:21:30.264Z,89621.44
2023-01-17T07:23:58.675Z,89620.31
2023-01-17T07:26:27.069Z,89615.78
2023-01-17T07:28:55.520Z,89616.16
2023-01-17T07:31:25.609Z,89620.69
2023-01-17T07:33:54.043Z,89615.78
2023-01-17T07:36:23.474Z,89613.16
2023-01-17T07:38:51.925Z,89621.47
2023-01-17T07:41:20.399Z,89612.00
2023-01-17T07:43:48.989Z,89623.69
2023-01-17T07:46:17.496Z,89622.94
2023-01-17T07:48:47.320Z,89628.59
2023-01-17T07:51:16.219Z,89632.75
2023-01-17T07:53:44.651Z,89627.47
2023-01-17T07:56:13.066Z,89626.72
2023-01-17T07:58:41.538Z,89622.94
2023-01-17T08:01:12.854Z,89621.06
2023-01-17T08:03:41.895Z,89628.97
2023-01-17T08:06:22.091Z,89626.34
2023-01-17T08:08:50.995Z,89624.44
2023-01-17T08:11:19.771Z,89624.06
2023-01-17T08:13:48.250Z,89622.19
2023-01-17T08:16:16.824Z,89625.59
2023-01-17T08:18:45.292Z,89616.53
2023-01-17T08:21:17.434Z,89613.88
2023-01-17T08:23:49.292Z,89610.44
2023-01-17T08:26:21.575Z,89603.28
2023-01-17T08:28:51.333Z,89592.03
2023-01-17T08:31:20.945Z,89587.50
2023-01-17T08:33:49.399Z,89575.41
2023-01-17T08:36:19.402Z,89576.19
2023-01-17T08:38:52.700Z,89574.66
2023-01-17T08:41:21.355Z,89576.88
2023-01-17T08:43:50.357Z,89576.94
2023-01-17T08:46:19.573Z,89571.97
2023-01-17T08:48:48.228Z,89572.22
2023-01-17T08:51:18.297Z,89571.03
2023-01-17T08:53:46.709Z,89555.63
2023-01-17T08:56:15.321Z,89549.53
2023-01-17T08:58:43.731Z,89549.56
2023-01-17T09:01:12.488Z,89531.81
2023-01-17T09:03:41.224Z,89528.50
2023-01-17T09:06:11.983Z,89520.91
2023-01-17T09:08:42.237Z,89521.66
2023-01-17T09:11:13.340Z,89532.72
2023-01-17T09:13:42.653Z,89540.53
2023-01-17T09:16:11.492Z,89520.44
2023-01-17T09:18:39.996Z,89525.38
2023-01-17T09:21:13.083Z,89529.88
2023-01-17T09:23:43.872Z,89526.38
2023-01-17T09:26:20.570Z,89521.00
2023-01-17T09:28:49.271Z,89527.16
2023-01-17T09:31:18.263Z,89521.00
2023-01-17T09:33:46.679Z,89516.88
2023-01-17T09:36:15.804Z,89518.63
2023-01-17T09:38:45.890Z,89514.78
2023-01-17T09:41:27.653Z,89511.44
2023-01-17T09:44:04.573Z,89516.16
2023-01-17T09:46:37.771Z,89524.41
2023-01-17T09:49:10.779Z,89533.66
2023-01-17T09:51:39.475Z,89540.16
2023-01-17T09:54:22.825Z,89526.84
2023-01-17T09:57:00.782Z,89526.44
2023-01-17T09:59:37.963Z,89534.53
2023-01-17T10:02:27.701Z,89537.84
2023-01-17T10:05:29.804Z,89527.91
2023-01-17T10:08:15.237Z,89537.53
2023-01-17T10:10:57.821Z,89531.47
2023-01-17T10:13:38.639Z,89527.75
2023-01-17T10:16:24.239Z,89526.81
2023-01-17T10:19:20.520Z,89519.38
2023-01-17T10:22:20.742Z,89509.75
2023-01-17T10:25:36.615Z,89506.13
2023-01-17T10:28:16.671Z,89500.09
2023-01-17T10:30:50.192Z,89487.91
2023-01-17T10:33:22.688Z,89482.97
2023-01-17T10:36:00.503Z,89481.94
2023-01-17T10:38:36.077Z,89470.16
2023-01-17T10:41:09.496Z,89469.41
2023-01-17T10:43:49.408Z,89471.56
2023-01-17T10:46:24.337Z,89464.59
2023-01-17T10:48:54.067Z,89456.53
2023-01-17T10:51:51.546Z,89458.03
2023-01-17T10:54:36.163Z,89443.25
2023-01-17T10:57:04.952Z,89433.22
2023-01-17T10:59:37.196Z,89434.59
2023-01-17T11:02:20.675Z,89428.94
2023-01-17T11:04:54.565Z,89430.28
2023-01-17T11:07:26.637Z,89431.94
2023-01-17T11:09:56.674Z,89420.19
2023-01-17T11:12:30.615Z,89423.31
2023-01-17T11:15:19.784Z,89410.69
2023-01-17T11:17:54.268Z,89396.47
2023-01-17T11:20:31.127Z,89385.50
2023-01-17T11:23:08.577Z,89383.59
2023-01-17T11:25:37.415Z,89377.59
2023-01-17T11:28:11.965Z,89376.69
2023-01-17T11:30:54.630Z,89368.56
2023-01-17T11:33:45.439Z,89361.41
2023-01-17T11:36:22.530Z,89356.78
2023-01-17T11:38:59.847Z,89360.59
2023-01-17T11:41:29.326Z,89359.53
2023-01-17T11:44:00.158Z,89364.84
2023-01-17T11:46:30.345Z,89360.63
2023-01-17T11:49:01.541Z,89353.44
2023-01-17T11:51:33.643Z,89361.94
2023-01-17T11:54:16.871Z,89370.75
2023-01-17T11:56:46.520Z,89370.09
2023-01-17T11:59:30.189Z,89369.59
2023-01-17T12:02:35.870Z,89375.38
2023-01-17T12:05:25.904Z,89381.13
2023-01-17T12:08:06.472Z,89371.97
2023-01-17T12:10:42.684Z,89367.09
2023-01-17T12:13:38.177Z,89362.13
2023-01-17T12:16:28.535Z,89345.28
2023-01-17T12:19:11.427Z,89353.09
2023-01-17T12:21:51.469Z,89353.97
2023-01-17T12:24:58.400Z,89343.31
2023-01-17T12:27:36.291Z,89343.22
2023-01-17T12:30:31.814Z,89336.56
2023-01-17T12:33:20.199Z,89325.84
2023-01-17T12:35:55.184Z,89319.94
2023-01-17T12:38:33.440Z,89316.47
2023-01-17T12:41:09.683Z,89305.72
2023-01-17T12:43:42.237Z,89304.31
2023-01-17T12:46:21.034Z,89299.06
2023-01-17T12:48:53.185Z,89290.09
2023-01-17T12:51:29.428Z,89292.22
2023-01-17T12:54:04.523Z,89284.59
2023-01-17T12:56:38.649Z,89284.09
2023-01-17T12:59:18.021Z,89284.22
2023-01-17T13:01:58.551Z,89275.81
2023-01-17T13:04:32.632Z,89277.31
2023-01-17T13:07:13.747Z,89285.94
2023-01-17T13:09:47.745Z,89281.97
2023-01-17T13:12:19.918Z,89270.81
2023-01-17T13:14:48.937Z,89277.06
2023-01-17T13:17:32.700Z,89279.09
2023-01-17T13:20:10.480Z,89270.75
2023-01-17T13:22:42.088Z,89269.66
2023-01-17T13:25:31.093Z,89273.47
2023-01-17T13:28:10.935Z,89266.31
2023-01-17T13:31:16.975Z,89265.16
2023-01-17T13:34:27.183Z,89263.09
2023-01-17T13:37:20.801Z,89262.50
2023-01-17T13:40:20.005Z,89253.63
2023-01-17T13:42:57.119Z,89253.63
2023-01-17T13:45:30.034Z,89256.06
2023-01-17T13:48:26.749Z,89245.41
2023-01-17T13:50:56.837Z,89254.44
2023-01-17T13:53:49.100Z,89257.19
2023-01-17T13:56:43.585Z,89261.69
2023-01-17T13:59:30.709Z,89262.69
2023-01-17T14:01:59.468Z,89262.88
2023-01-17T14:05:15.422Z,89264.50
2023-01-17T14:07:49.664Z,89266.16
2023-01-17T14:10:33.599Z,89266.38
2023-01-17T14:13:06.203Z,89272.56
2023-01-17T14:15:37.130Z,89272.41
2023-01-17T14:18:08.286Z,89272.53
2023-01-17T14:21:06.335Z,89284.19
2023-01-17T14:24:03.792Z,89284.19
2023-01-17T14:26:43.276Z,89291.72
2023-01-17T14:29:59.524Z,89293.63
2023-01-17T14:32:32.561Z,89293.28
2023-01-17T14:35:01.292Z,89295.88
2023-01-17T14:37:46.187Z,89290.34
2023-01-17T14:40:21.268Z,89289.81
2023-01-17T14:42:59.690Z,89287.09
2023-01-17T14:45:32.164Z,89286.38
2023-01-17T14:48:03.799Z,89283.38
2023-01-17T14:50:38.173Z,89286.13
2023-01-17T14:53:20.462Z,89279.53
2023-01-17T14:55:56.547Z,89276.47
2023-01-17T14:58:28.518Z,89277.16
2023-01-17T15:01:02.256Z,89273.63
2023-01-17T15:03:35.324Z,89268.13
2023-01-17T15:06:12.617Z,89269.53
2023-01-17T15:08:41.473Z,89273.75
2023-01-17T15:11:18.699Z,89272.06
2023-01-17T15:13:50.876Z,89264.91
2023-01-17T15:16:24.939Z,89272.75
2023-01-17T15:18:54.897Z,89269.97
2023-01-17T15:21:26.026Z,89260.56
2023-01-17T15:23:57.994Z,89258.22
2023-01-17T15:26:29.515Z,89246.69
2023-01-17T15:29:05.902Z,89256.53
2023-01-17T15:31:44.494Z,89252.03
2023-01-17T15:34:25.219Z,89254.28
2023-01-17T15:36:54.575Z,89254.66
2023-01-17T15:39:28.024Z,89255.38
2023-01-17T15:41:59.281Z,89252.53
2023-01-17T15:44:49.974Z,89254.72
2023-01-17T15:47:35.512Z,89254.84
2023-01-17T15:50:31.372Z,89257.31
2023-01-17T15:53:02.566Z,89251.59
2023-01-17T15:55:34.514Z,89253.41
2023-01-17T15:58:04.026Z,89253.09
2023-01-17T16:00:39.514Z,89255.84
2023-01-17T16:03:24.864Z,89258.63
2023-01-17T16:05:57.966Z,89256.44
2023-01-17T16:08:39.742Z,89253.81
2023-01-17T16:11:13.546Z,89257.59
2023-01-17T16:13:43.469Z,89251.53
2023-01-17T16:16:23.009Z,89257.66
2023-01-17T16:19:01.757Z,89267.31
2023-01-17T16:21:32.294Z,89283.84
2023-01-17T16:24:02.913Z,89269.81
2023-01-17T16:26:31.382Z,89273.91
2023-01-17T16:28:59.832Z,89276.50
2023-01-17T16:31:28.244Z,89283.88
2023-01-17T16:33:58.025Z,89277.66
2023-01-17T16:36:28.807Z,89291.94
2023-01-17T16:38:57.395Z,89291.75
2023-01-17T16:41:25.818Z,89290.03
2023-01-17T16:44:03.214Z,89295.34
2023-01-17T16:46:31.910Z,89286.66
2023-01-17T16:49:05.259Z,89299.91
2023-01-17T16:51:34.523Z,89289.28
2023-01-17T16:54:03.345Z,89296.00
2023-01-17T16:56:31.835Z,89294.38
2023-01-17T16:59:00.247Z,89305.31
2023-01-17T17:01:28.728Z,89309.63
2023-01-17T17:03:57.277Z,89307.91
2023-01-17T17:06:27.384Z,89309.75
2023-01-17T17:08:56.940Z,89312.25
2023-01-17T17:11:25.783Z,89307.75
2023-01-17T17:13:54.378Z,89308.09
2023-01-17T17:16:27.420Z,89308.25
2023-01-17T17:18:57.787Z,89309.84
2023-01-17T17:21:28.847Z,89303.75
2023-01-17T17:23:59.508Z,89307.25
2023-01-17T17:26:31.073Z,89309.50
2023-01-17T17:29:00.003Z,89308.34
2023-01-17T17:31:29.028Z,89306.50
2023-01-17T17:34:00.713Z,89298.56
2023-01-17T17:36:31.396Z,89312.06
2023-01-17T17:39:02.044Z,89311.31
2023-01-17T17:41:32.956Z,89322.41
2023-01-17T17:44:02.641Z,89318.16
2023-01-17T17:46:33.755Z,89322.41
2023-01-17T17:49:02.919Z,89331.75
2023-01-17T17:51:35.188Z,89339.75
2023-01-17T17:54:07.651Z,89338.38
2023-01-17T17:56:37.238Z,89329.31
2023-01-17T17:59:09.240Z,89331.75
2023-01-17T18:01:38.279Z,89335.56
2023-01-17T18:04:08.217Z,89342.56
2023-01-17T18:06:39.086Z,89337.16
2023-01-17T18:09:08.293Z,89342.22
2023-01-17T18:11:42.627Z,89338.56
2023-01-17T18:14:15.033Z,89339.06
2023-01-17T18:16:47.118Z,89345.13
2023-01-17T18:19:18.880Z,89348.13
2023-01-17T18:21:50.361Z,89354.00
2023-01-17T18:24:22.200Z,89348.13
2023-01-17T18:26:52.199Z,89354.22
2023-01-17T18:29:22.813Z,89353.41
2023-01-17T18:31:52.634Z,89347.88
2023-01-17T18:34:24.380Z,89349.88
2023-01-17T18:36:54.380Z,89345.75
2023-01-17T18:39:25.929Z,89357.34
2023-01-17T18:41:55.077Z,89360.38
2023-01-17T18:44:23.929Z,89361.53
2023-01-17T18:46:54.042Z,89354.53
2023-01-17T18:49:22.522Z,89369.03
2023-01-17T18:51:51.892Z,89361.97
2023-01-17T18:54:22.253Z,89360.22
2023-01-17T18:56:51.159Z,89366.56
2023-01-17T18:59:20.415Z,89367.13
2023-01-17T19:01:49.659Z,89356.19
2023-01-17T19:04:19.813Z,89359.47
2023-01-17T19:06:50.617Z,89358.03
2023-01-17T19:09:19.543Z,89363.28
2023-01-17T19:11:51.391Z,89364.28
2023-01-17T19:14:19.930Z,89360.47
2023-01-17T19:16:48.358Z,89364.13
2023-01-17T19:19:17.467Z,89357.06
2023-01-17T19:21:45.941Z,89361.63
2023-01-17T19:24:14.674Z,89359.38
2023-01-17T19:26:45.825Z,89335.84
2023-01-17T19:29:15.975Z,89363.22
2023-01-17T19:31:44.831Z,89366.94
2023-01-17T19:34:15.991Z,89359.97
2023-01-17T19:36:44.600Z,89364.28
2023-01-17T19:39:13.448Z,89365.84
2023-01-17T19:41:44.981Z,89353.19
2023-01-17T19:44:16.597Z,89361.78
2023-01-17T19:46:46.268Z,89365.97
2023-01-17T19:52:05.934Z,89366.25
2023-01-17T19:54:34.801Z,89358.94
2023-01-17T19:57:03.439Z,89347.56
2023-01-17T19:59:33.510Z,89357.09
2023-01-17T20:02:02.269Z,89349.41
2023-01-17T20:04:31.237Z,89346.94
2023-01-17T20:06:59.641Z,89350.66
2023-01-17T20:09:28.099Z,89361.94
2023-01-17T20:11:56.569Z,89360.19
2023-01-17T20:14:25.207Z,89355.59
2023-01-17T20:16:55.072Z,89357.00
2023-01-17T20:19:23.864Z,89356.69
2023-01-17T20:21:52.917Z,89358.06
2023-01-17T20:24:21.326Z,89362.84
2023-01-17T20:26:51.421Z,89358.94
2023-01-17T20:29:20.262Z,89360.47
2023-01-17T20:31:53.684Z,89363.09
2023-01-17T20:34:25.787Z,89356.63
2023-01-17T20:36:57.761Z,89363.13
2023-01-17T20:39:26.294Z,89356.50
2023-01-17T20:41:54.731Z,89363.50
2023-01-17T20:44:23.959Z,89365.56
2023-01-17T20:46:52.429Z,89361.28
2023-01-17T20:49:22.598Z,89357.31
2023-01-17T20:51:51.032Z,89362.03
2023-01-17T20:54:20.924Z,89366.00
2023-01-17T20:56:49.372Z,89370.28
2023-01-17T20:59:19.925Z,89368.13
2023-01-17T21:01:48.831Z,89371.97
2023-01-17T21:04:23.812Z,89366.03
2023-01-17T21:06:54.737Z,89371.59
2023-01-17T21:09:23.219Z,89363.44
2023-01-17T21:11:51.905Z,89374.59
2023-01-17T21:14:21.690Z,89379.47
2023-01-17T21:16:51.550Z,89382.59
2023-01-17T21:19:20.529Z,89382.59
2023-01-17T21:21:50.303Z,89380.59
2023-01-17T21:24:20.229Z,89376.34
2023-01-17T21:26:51.645Z,89375.88
2023-01-17T21:29:20.102Z,89376.69
2023-01-17T21:31:48.748Z,89377.72
2023-01-17T21:34:17.168Z,89375.97
2023-01-17T21:36:46.560Z,89386.50
2023-01-17T21:39:17.904Z,89380.47
2023-01-17T21:41:50.856Z,89371.66
2023-01-17T21:44:22.203Z,89374.47
2023-01-17T21:46:55.849Z,89378.81
2023-01-17T21:49:24.909Z,89372.69
2023-01-17T21:52:10.638Z,89383.19
2023-01-17T21:54:56.821Z,89387.50
2023-01-17T21:57:44.247Z,89376.63
2023-01-17T22:00:15.713Z,89377.25
2023-01-17T22:02:44.844Z,89388.44
2023-01-17T22:05:13.697Z,89386.34
2023-01-17T22:08:02.733Z,89392.94
2023-01-17T22:10:31.298Z,89401.00
2023-01-17T22:13:01.089Z,89390.47
2023-01-17T22:15:29.569Z,89391.44
2023-01-17T22:17:58.687Z,89394.31
2023-01-17T22:20:27.400Z,89390.88
2023-01-17T22:22:56.400Z,89398.09
2023-01-17T22:25:25.031Z,89398.41
2023-01-17T22:27:53.678Z,89394.84
2023-01-17T22:30:23.602Z,89398.41
2023-01-17T22:32:52.054Z,89399.66
2023-01-17T22:35:20.770Z,89400.69
2023-01-17T22:37:49.175Z,89403.03
2023-01-17T22:40:18.298Z,89405.75
2023-01-17T22:42:46.752Z,89407.25
2023-01-17T22:45:17.380Z,89409.00
2023-01-17T22:47:47.169Z,89410.75
2023-01-17T22:50:15.821Z,89411.78
2023-01-17T22:52:44.245Z,89405.22
2023-01-17T22:55:13.268Z,89416.88
2023-01-17T22:57:41.764Z,89412.25
2023-01-17T23:00:14.821Z,89409.75
2023-01-17T23:02:43.783Z,89400.84
2023-01-17T23:05:14.257Z,89395.00
2023-01-17T23:07:45.288Z,89392.19
2023-01-17T23:10:35.957Z,89406.81
2023-01-17T23:13:04.626Z,89396.84
2023-01-17T23:15:50.523Z,89412.94
2023-01-17T23:18:36.732Z,89406.47
2023-01-17T23:21:09.199Z,89402.13
2023-01-17T23:23:37.610Z,89401.75
2023-01-17T23:26:06.293Z,89407.44
2023-01-17T23:28:33.712Z,89403.88
2023-01-17T23:31:05.076Z,89415.13
2023-01-17T23:33:33.516Z,89410.69
2023-01-17T23:36:01.964Z,89412.75
2023-01-17T23:38:33.979Z,89414.97
2023-01-17T23:41:24.074Z,89419.63
2023-01-17T23:43:53.584Z,89431.63
2023-01-17T23:46:22.863Z,89420.31
2023-01-17T23:48:51.557Z,89428.28
2023-01-17T23:51:20.322Z,89424.06
2023-01-17T23:53:53.646Z,89429.72
2023-01-17T23:56:24.657Z,89412.47
2023-01-17T23:58:53.213Z,89427.53
